sensor_id;sensor_type;location;lat;lon;timestamp;P1;durP1;ratioP1;P2;durP2;ratioP2
18206;SDS011;9229;52.354;20.886;2023-04-24T00:04:58;16.67;;;8.40;;
18206;SDS011;9229;52.354;20.886;2023-04-24T00:10:05;11.07;;;8.70;;
18206;SDS011;9229;52.354;20.886;2023-04-24T00:15:08;12.27;;;8.70;;
18206;SDS011;9229;52.354;20.886;2023-04-24T00:20:12;11.45;;;9.05;;
18206;SDS011;9229;52.354;20.886;2023-04-24T00:25:16;11.13;;;9.00;;
18206;SDS011;9229;52.354;20.886;2023-04-24T00:30:18;12.60;;;8.73;;
18206;SDS011;9229;52.354;20.886;2023-04-24T00:35:20;14.75;;;8.63;;
18206;SDS011;9229;52.354;20.886;2023-04-24T00:40:24;17.20;;;10.40;;
18206;SDS011;9229;52.354;20.886;2023-04-24T00:45:28;11.65;;;8.93;;
18206;SDS011;9229;52.354;20.886;2023-04-24T00:50:31;12.20;;;9.07;;
18206;SDS011;9229;52.354;20.886;2023-04-24T00:55:35;16.00;;;10.13;;
18206;SDS011;9229;52.354;20.886;2023-04-24T01:00:38;12.48;;;9.35;;
18206;SDS011;9229;52.354;20.886;2023-04-24T01:05:41;10.95;;;8.88;;
18206;SDS011;9229;52.354;20.886;2023-04-24T01:10:45;14.60;;;9.05;;
18206;SDS011;9229;52.354;20.886;2023-04-24T01:15:49;13.23;;;9.18;;
18206;SDS011;9229;52.354;20.886;2023-04-24T01:20:52;14.40;;;10.63;;
18206;SDS011;9229;52.354;20.886;2023-04-24T01:25:59;15.32;;;9.60;;
18206;SDS011;9229;52.354;20.886;2023-04-24T01:31:01;13.45;;;10.27;;
18206;SDS011;9229;52.354;20.886;2023-04-24T01:36:04;14.98;;;10.25;;
18206;SDS011;9229;52.354;20.886;2023-04-24T01:41:09;15.07;;;9.77;;
18206;SDS011;9229;52.354;20.886;2023-04-24T01:46:12;15.10;;;10.38;;
18206;SDS011;9229;52.354;20.886;2023-04-24T01:51:14;18.23;;;11.45;;
18206;SDS011;9229;52.354;20.886;2023-04-24T01:56:18;15.95;;;10.85;;
18206;SDS011;9229;52.354;20.886;2023-04-24T02:01:21;17.35;;;9.85;;
18206;SDS011;9229;52.354;20.886;2023-04-24T02:06:24;13.45;;;9.88;;
18206;SDS011;9229;52.354;20.886;2023-04-24T02:11:28;14.77;;;10.25;;
18206;SDS011;9229;52.354;20.886;2023-04-24T02:16:31;18.27;;;9.55;;
18206;SDS011;9229;52.354;20.886;2023-04-24T02:21:34;21.02;;;11.25;;
18206;SDS011;9229;52.354;20.886;2023-04-24T02:26:37;21.95;;;10.52;;
18206;SDS011;9229;52.354;20.886;2023-04-24T02:31:39;17.27;;;11.07;;
18206;SDS011;9229;52.354;20.886;2023-04-24T02:36:41;19.05;;;12.05;;
18206;SDS011;9229;52.354;20.886;2023-04-24T02:41:45;17.65;;;12.38;;
18206;SDS011;9229;52.354;20.886;2023-04-24T02:46:47;19.98;;;11.27;;
18206;SDS011;9229;52.354;20.886;2023-04-24T02:51:50;18.45;;;11.45;;
18206;SDS011;9229;52.354;20.886;2023-04-24T02:56:54;17.42;;;11.38;;
18206;SDS011;9229;52.354;20.886;2023-04-24T03:01:56;17.80;;;12.07;;
18206;SDS011;9229;52.354;20.886;2023-04-24T03:06:59;15.07;;;11.13;;
18206;SDS011;9229;52.354;20.886;2023-04-24T03:12:03;17.50;;;11.88;;
18206;SDS011;9229;52.354;20.886;2023-04-24T03:17:05;22.25;;;11.68;;
18206;SDS011;9229;52.354;20.886;2023-04-24T03:22:07;27.20;;;12.30;;
18206;SDS011;9229;52.354;20.886;2023-04-24T03:27:12;20.33;;;12.70;;
18206;SDS011;9229;52.354;20.886;2023-04-24T03:32:27;24.83;;;12.80;;
18206;SDS011;9229;52.354;20.886;2023-04-24T03:37:30;18.70;;;12.60;;
18206;SDS011;9229;52.354;20.886;2023-04-24T03:42:48;23.85;;;13.27;;
18206;SDS011;9229;52.354;20.886;2023-04-24T03:47:52;18.98;;;11.90;;
18206;SDS011;9229;52.354;20.886;2023-04-24T03:52:54;21.27;;;12.75;;
18206;SDS011;9229;52.354;20.886;2023-04-24T03:58:09;17.95;;;12.27;;
18206;SDS011;9229;52.354;20.886;2023-04-24T04:03:14;20.33;;;12.48;;
18206;SDS011;9229;52.354;20.886;2023-04-24T04:08:17;18.45;;;12.65;;
18206;SDS011;9229;52.354;20.886;2023-04-24T04:13:21;19.88;;;13.00;;
18206;SDS011;9229;52.354;20.886;2023-04-24T04:18:23;15.85;;;11.93;;
18206;SDS011;9229;52.354;20.886;2023-04-24T04:23:25;19.30;;;11.40;;
18206;SDS011;9229;52.354;20.886;2023-04-24T04:29:07;20.38;;;12.13;;
18206;SDS011;9229;52.354;20.886;2023-04-24T04:34:14;15.32;;;11.90;;
18206;SDS011;9229;52.354;20.886;2023-04-24T04:39:16;24.42;;;11.52;;
18206;SDS011;9229;52.354;20.886;2023-04-24T04:44:41;29.75;;;12.52;;
18206;SDS011;9229;52.354;20.886;2023-04-24T04:49:50;46.80;;;13.25;;
18206;SDS011;9229;52.354;20.886;2023-04-24T04:54:56;31.27;;;12.40;;
18206;SDS011;9229;52.354;20.886;2023-04-24T05:00:10;19.38;;;11.68;;
18206;SDS011;9229;52.354;20.886;2023-04-24T05:05:21;18.73;;;11.40;;
18206;SDS011;9229;52.354;20.886;2023-04-24T05:10:24;17.42;;;11.20;;
18206;SDS011;9229;52.354;20.886;2023-04-24T05:15:30;20.42;;;10.98;;
18206;SDS011;9229;52.354;20.886;2023-04-24T05:20:34;16.52;;;9.95;;
18206;SDS011;9229;52.354;20.886;2023-04-24T05:25:36;18.20;;;11.00;;
18206;SDS011;9229;52.354;20.886;2023-04-24T05:30:47;17.90;;;10.30;;
18206;SDS011;9229;52.354;20.886;2023-04-24T05:35:51;13.93;;;10.02;;
18206;SDS011;9229;52.354;20.886;2023-04-24T05:40:54;22.50;;;10.00;;
18206;SDS011;9229;52.354;20.886;2023-04-24T05:45:58;18.05;;;9.32;;
18206;SDS011;9229;52.354;20.886;2023-04-24T05:51:01;15.57;;;8.55;;
18206;SDS011;9229;52.354;20.886;2023-04-24T05:56:03;16.80;;;9.30;;
18206;SDS011;9229;52.354;20.886;2023-04-24T06:01:07;12.95;;;9.10;;
18206;SDS011;9229;52.354;20.886;2023-04-24T06:06:10;14.98;;;9.55;;
18206;SDS011;9229;52.354;20.886;2023-04-24T06:11:16;16.00;;;9.27;;
18206;SDS011;9229;52.354;20.886;2023-04-24T06:16:19;12.45;;;9.10;;
18206;SDS011;9229;52.354;20.886;2023-04-24T06:21:28;53.05;;;12.18;;
18206;SDS011;9229;52.354;20.886;2023-04-24T06:26:32;23.08;;;9.70;;
18206;SDS011;9229;52.354;20.886;2023-04-24T06:31:38;18.02;;;8.95;;
18206;SDS011;9229;52.354;20.886;2023-04-24T06:36:41;22.25;;;9.15;;
18206;SDS011;9229;52.354;20.886;2023-04-24T06:41:43;22.15;;;9.70;;
18206;SDS011;9229;52.354;20.886;2023-04-24T06:46:54;19.92;;;9.27;;
18206;SDS011;9229;52.354;20.886;2023-04-24T06:51:56;19.10;;;9.23;;
18206;SDS011;9229;52.354;20.886;2023-04-24T06:56:59;17.73;;;9.32;;
18206;SDS011;9229;52.354;20.886;2023-04-24T07:02:04;20.73;;;8.88;;
18206;SDS011;9229;52.354;20.886;2023-04-24T07:07:06;13.57;;;8.05;;
18206;SDS011;9229;52.354;20.886;2023-04-24T07:12:09;17.85;;;8.80;;
18206;SDS011;9229;52.354;20.886;2023-04-24T07:17:15;22.88;;;8.73;;
18206;SDS011;9229;52.354;20.886;2023-04-24T07:22:22;12.38;;;8.45;;
18206;SDS011;9229;52.354;20.886;2023-04-24T07:27:25;11.35;;;8.68;;
18206;SDS011;9229;52.354;20.886;2023-04-24T07:32:31;23.38;;;9.23;;
18206;SDS011;9229;52.354;20.886;2023-04-24T07:37:33;17.48;;;9.02;;
18206;SDS011;9229;52.354;20.886;2023-04-24T07:42:35;15.27;;;8.68;;
18206;SDS011;9229;52.354;20.886;2023-04-24T07:47:39;15.25;;;8.30;;
18206;SDS011;9229;52.354;20.886;2023-04-24T07:52:44;16.83;;;7.75;;
18206;SDS011;9229;52.354;20.886;2023-04-24T07:57:46;13.65;;;7.97;;
18206;SDS011;9229;52.354;20.886;2023-04-24T08:02:50;24.98;;;8.32;;
18206;SDS011;9229;52.354;20.886;2023-04-24T08:07:58;11.63;;;7.97;;
18206;SDS011;9229;52.354;20.886;2023-04-24T08:13:00;11.75;;;8.25;;
18206;SDS011;9229;52.354;20.886;2023-04-24T08:18:05;14.35;;;7.93;;
18206;SDS011;9229;52.354;20.886;2023-04-24T08:23:09;13.95;;;7.65;;
18206;SDS011;9229;52.354;20.886;2023-04-24T08:28:13;153.25;;;12.27;;
18206;SDS011;9229;52.354;20.886;2023-04-24T08:33:22;22.77;;;7.45;;
18206;SDS011;9229;52.354;20.886;2023-04-24T08:38:24;13.75;;;7.57;;
18206;SDS011;9229;52.354;20.886;2023-04-24T08:43:26;18.67;;;7.65;;
18206;SDS011;9229;52.354;20.886;2023-04-24T08:48:31;18.90;;;7.78;;
18206;SDS011;9229;52.354;20.886;2023-04-24T08:53:33;14.30;;;7.65;;
18206;SDS011;9229;52.354;20.886;2023-04-24T08:58:35;34.88;;;9.25;;
18206;SDS011;9229;52.354;20.886;2023-04-24T09:03:39;10.60;;;8.38;;
18206;SDS011;9229;52.354;20.886;2023-04-24T09:08:42;11.88;;;8.48;;
18206;SDS011;9229;52.354;20.886;2023-04-24T09:13:45;20.95;;;8.75;;
18206;SDS011;9229;52.354;20.886;2023-04-24T09:18:49;28.42;;;8.57;;
18206;SDS011;9229;52.354;20.886;2023-04-24T09:23:58;17.05;;;7.50;;
18206;SDS011;9229;52.354;20.886;2023-04-24T09:29:01;16.23;;;8.45;;
18206;SDS011;9229;52.354;20.886;2023-04-24T09:34:06;22.35;;;8.10;;
18206;SDS011;9229;52.354;20.886;2023-04-24T09:39:09;13.18;;;7.32;;
18206;SDS011;9229;52.354;20.886;2023-04-24T09:44:13;11.55;;;8.23;;
18206;SDS011;9229;52.354;20.886;2023-04-24T09:49:22;18.05;;;8.85;;
18206;SDS011;9229;52.354;20.886;2023-04-24T09:54:25;25.33;;;8.18;;
18206;SDS011;9229;52.354;20.886;2023-04-24T09:59:27;11.75;;;7.43;;
18206;SDS011;9229;52.354;20.886;2023-04-24T10:04:31;13.18;;;7.82;;
18206;SDS011;9229;52.354;20.886;2023-04-24T10:09:33;92.45;;;10.43;;
18206;SDS011;9229;52.354;20.886;2023-04-24T10:14:36;19.08;;;7.20;;
18206;SDS011;9229;52.354;20.886;2023-04-24T10:19:40;14.32;;;6.22;;
18206;SDS011;9229;52.354;20.886;2023-04-24T10:24:44;24.80;;;6.50;;
18206;SDS011;9229;52.354;20.886;2023-04-24T10:29:48;25.90;;;4.32;;
18206;SDS011;9229;52.354;20.886;2023-04-24T10:34:54;12.07;;;5.20;;
18206;SDS011;9229;52.354;20.886;2023-04-24T10:39:58;9.73;;;4.38;;
18206;SDS011;9229;52.354;20.886;2023-04-24T10:45:04;11.15;;;4.82;;
18206;SDS011;9229;52.354;20.886;2023-04-24T10:50:09;11.50;;;5.10;;
18206;SDS011;9229;52.354;20.886;2023-04-24T10:55:12;4.97;;;4.47;;
18206;SDS011;9229;52.354;20.886;2023-04-24T11:00:19;10.57;;;4.80;;
18206;SDS011;9229;52.354;20.886;2023-04-24T11:05:48;5.93;;;5.07;;
18206;SDS011;9229;52.354;20.886;2023-04-24T11:10:55;8.60;;;5.57;;
18206;SDS011;9229;52.354;20.886;2023-04-24T11:16:14;10.43;;;5.45;;
18206;SDS011;9229;52.354;20.886;2023-04-24T11:21:23;10.32;;;5.40;;
18206;SDS011;9229;52.354;20.886;2023-04-24T11:26:26;8.00;;;5.72;;
18206;SDS011;9229;52.354;20.886;2023-04-24T11:31:36;10.15;;;6.25;;
18206;SDS011;9229;52.354;20.886;2023-04-24T11:36:42;17.80;;;6.93;;
18206;SDS011;9229;52.354;20.886;2023-04-24T11:41:44;13.90;;;6.68;;
18206;SDS011;9229;52.354;20.886;2023-04-24T11:46:47;12.98;;;6.20;;
18206;SDS011;9229;52.354;20.886;2023-04-24T11:51:52;7.50;;;5.53;;
18206;SDS011;9229;52.354;20.886;2023-04-24T11:56:57;8.75;;;5.07;;
18206;SDS011;9229;52.354;20.886;2023-04-24T12:02:00;8.80;;;5.53;;
18206;SDS011;9229;52.354;20.886;2023-04-24T12:07:03;11.15;;;5.10;;
18206;SDS011;9229;52.354;20.886;2023-04-24T12:12:07;5.78;;;5.22;;
18206;SDS011;9229;52.354;20.886;2023-04-24T12:17:10;9.95;;;6.07;;
18206;SDS011;9229;52.354;20.886;2023-04-24T12:22:13;7.70;;;5.35;;
18206;SDS011;9229;52.354;20.886;2023-04-24T12:27:19;8.45;;;5.97;;
18206;SDS011;9229;52.354;20.886;2023-04-24T12:32:21;10.02;;;5.70;;
18206;SDS011;9229;52.354;20.886;2023-04-24T12:37:26;7.10;;;5.30;;
18206;SDS011;9229;52.354;20.886;2023-04-24T12:42:41;5.75;;;5.25;;
18206;SDS011;9229;52.354;20.886;2023-04-24T12:47:45;10.88;;;5.70;;
18206;SDS011;9229;52.354;20.886;2023-04-24T12:52:49;6.78;;;5.20;;
18206;SDS011;9229;52.354;20.886;2023-04-24T12:57:51;10.57;;;5.63;;
18206;SDS011;9229;52.354;20.886;2023-04-24T13:02:55;5.93;;;5.25;;
18206;SDS011;9229;52.354;20.886;2023-04-24T13:07:58;54.22;;;7.22;;
18206;SDS011;9229;52.354;20.886;2023-04-24T13:13:00;16.13;;;5.20;;
18206;SDS011;9229;52.354;20.886;2023-04-24T13:18:03;10.68;;;5.10;;
18206;SDS011;9229;52.354;20.886;2023-04-24T13:23:07;12.63;;;4.38;;
18206;SDS011;9229;52.354;20.886;2023-04-24T13:28:09;5.40;;;3.83;;
18206;SDS011;9229;52.354;20.886;2023-04-24T13:33:11;5.53;;;4.15;;
18206;SDS011;9229;52.354;20.886;2023-04-24T13:38:15;12.23;;;5.00;;
18206;SDS011;9229;52.354;20.886;2023-04-24T13:43:17;5.97;;;4.40;;
18206;SDS011;9229;52.354;20.886;2023-04-24T13:48:19;16.23;;;4.55;;
18206;SDS011;9229;52.354;20.886;2023-04-24T13:53:23;7.15;;;5.05;;
18206;SDS011;9229;52.354;20.886;2023-04-24T13:58:25;3.90;;;3.60;;
18206;SDS011;9229;52.354;20.886;2023-04-24T14:03:27;4.57;;;3.90;;
18206;SDS011;9229;52.354;20.886;2023-04-24T14:08:32;6.10;;;4.15;;
18206;SDS011;9229;52.354;20.886;2023-04-24T14:13:35;10.75;;;4.15;;
18206;SDS011;9229;52.354;20.886;2023-04-24T14:18:37;4.80;;;4.35;;
18206;SDS011;9229;52.354;20.886;2023-04-24T14:23:41;7.38;;;4.18;;
18206;SDS011;9229;52.354;20.886;2023-04-24T14:28:44;10.65;;;4.53;;
18206;SDS011;9229;52.354;20.886;2023-04-24T14:33:46;5.97;;;4.55;;
18206;SDS011;9229;52.354;20.886;2023-04-24T14:38:50;4.93;;;3.90;;
18206;SDS011;9229;52.354;20.886;2023-04-24T14:43:53;5.55;;;4.18;;
18206;SDS011;9229;52.354;20.886;2023-04-24T14:48:56;9.18;;;4.40;;
18206;SDS011;9229;52.354;20.886;2023-04-24T14:54:00;7.63;;;4.13;;
18206;SDS011;9229;52.354;20.886;2023-04-24T14:59:04;5.28;;;3.95;;
18206;SDS011;9229;52.354;20.886;2023-04-24T15:04:07;4.22;;;3.90;;
18206;SDS011;9229;52.354;20.886;2023-04-24T15:09:10;4.38;;;4.00;;
18206;SDS011;9229;52.354;20.886;2023-04-24T15:14:12;30.30;;;6.00;;
18206;SDS011;9229;52.354;20.886;2023-04-24T15:19:15;4.10;;;3.70;;
18206;SDS011;9229;52.354;20.886;2023-04-24T15:24:19;5.88;;;4.30;;
18206;SDS011;9229;52.354;20.886;2023-04-24T15:29:21;16.58;;;4.70;;
18206;SDS011;9229;52.354;20.886;2023-04-24T15:34:23;4.38;;;3.72;;
18206;SDS011;9229;52.354;20.886;2023-04-24T15:39:27;21.30;;;5.15;;
18206;SDS011;9229;52.354;20.886;2023-04-24T15:44:29;10.50;;;4.15;;
18206;SDS011;9229;52.354;20.886;2023-04-24T15:49:31;7.25;;;3.80;;
18206;SDS011;9229;52.354;20.886;2023-04-24T15:54:35;10.43;;;4.30;;
18206;SDS011;9229;52.354;20.886;2023-04-24T15:59:38;12.87;;;4.80;;
18206;SDS011;9229;52.354;20.886;2023-04-24T16:04:40;8.10;;;4.47;;
18206;SDS011;9229;52.354;20.886;2023-04-24T16:09:44;6.38;;;4.60;;
18206;SDS011;9229;52.354;20.886;2023-04-24T16:14:47;16.73;;;4.43;;
18206;SDS011;9229;52.354;20.886;2023-04-24T16:19:49;4.40;;;3.90;;
18206;SDS011;9229;52.354;20.886;2023-04-24T16:24:52;50.28;;;6.05;;
18206;SDS011;9229;52.354;20.886;2023-04-24T16:29:54;6.72;;;4.00;;
18206;SDS011;9229;52.354;20.886;2023-04-24T16:34:58;8.65;;;4.50;;
18206;SDS011;9229;52.354;20.886;2023-04-24T16:40:02;9.43;;;4.10;;
18206;SDS011;9229;52.354;20.886;2023-04-24T16:45:10;4.63;;;4.10;;
18206;SDS011;9229;52.354;20.886;2023-04-24T16:50:12;15.43;;;4.20;;
18206;SDS011;9229;52.354;20.886;2023-04-24T16:55:18;11.27;;;4.65;;
18206;SDS011;9229;52.354;20.886;2023-04-24T17:00:20;5.47;;;4.50;;
18206;SDS011;9229;52.354;20.886;2023-04-24T17:05:23;6.20;;;4.80;;
18206;SDS011;9229;52.354;20.886;2023-04-24T17:10:26;17.10;;;5.20;;
18206;SDS011;9229;52.354;20.886;2023-04-24T17:15:29;7.78;;;4.78;;
18206;SDS011;9229;52.354;20.886;2023-04-24T17:20:31;7.78;;;4.50;;
18206;SDS011;9229;52.354;20.886;2023-04-24T17:25:38;21.55;;;5.68;;
18206;SDS011;9229;52.354;20.886;2023-04-24T17:30:49;14.80;;;5.15;;
18206;SDS011;9229;52.354;20.886;2023-04-24T17:35:53;16.60;;;6.38;;
18206;SDS011;9229;52.354;20.886;2023-04-24T17:40:57;32.92;;;6.65;;
18206;SDS011;9229;52.354;20.886;2023-04-24T17:46:00;27.05;;;6.43;;
18206;SDS011;9229;52.354;20.886;2023-04-24T17:51:02;20.25;;;7.13;;
18206;SDS011;9229;52.354;20.886;2023-04-24T17:56:06;18.08;;;6.95;;
18206;SDS011;9229;52.354;20.886;2023-04-24T18:01:08;16.63;;;7.30;;
18206;SDS011;9229;52.354;20.886;2023-04-24T18:06:10;11.93;;;7.38;;
18206;SDS011;9229;52.354;20.886;2023-04-24T18:11:18;18.48;;;8.50;;
18206;SDS011;9229;52.354;20.886;2023-04-24T18:16:21;18.33;;;8.57;;
18206;SDS011;9229;52.354;20.886;2023-04-24T18:21:23;15.77;;;8.15;;
18206;SDS011;9229;52.354;20.886;2023-04-24T18:26:27;20.05;;;8.88;;
18206;SDS011;9229;52.354;20.886;2023-04-24T18:31:29;21.10;;;9.30;;
18206;SDS011;9229;52.354;20.886;2023-04-24T18:36:31;63.17;;;11.02;;
18206;SDS011;9229;52.354;20.886;2023-04-24T18:41:35;16.10;;;9.70;;
18206;SDS011;9229;52.354;20.886;2023-04-24T18:46:37;22.38;;;9.98;;
18206;SDS011;9229;52.354;20.886;2023-04-24T18:51:40;24.83;;;9.85;;
18206;SDS011;9229;52.354;20.886;2023-04-24T18:56:43;18.58;;;10.95;;
18206;SDS011;9229;52.354;20.886;2023-04-24T19:01:45;42.25;;;11.63;;
18206;SDS011;9229;52.354;20.886;2023-04-24T19:06:47;35.80;;;12.63;;
18206;SDS011;9229;52.354;20.886;2023-04-24T19:11:54;14.90;;;10.30;;
18206;SDS011;9229;52.354;20.886;2023-04-24T19:16:56;19.00;;;9.63;;
18206;SDS011;9229;52.354;20.886;2023-04-24T19:21:58;18.58;;;9.27;;
18206;SDS011;9229;52.354;20.886;2023-04-24T19:27:02;14.90;;;9.27;;
18206;SDS011;9229;52.354;20.886;2023-04-24T19:32:04;17.13;;;9.55;;
18206;SDS011;9229;52.354;20.886;2023-04-24T19:37:06;22.00;;;9.60;;
18206;SDS011;9229;52.354;20.886;2023-04-24T19:42:10;12.98;;;8.20;;
18206;SDS011;9229;52.354;20.886;2023-04-24T19:47:12;14.57;;;8.40;;
18206;SDS011;9229;52.354;20.886;2023-04-24T19:52:15;15.85;;;9.52;;
18206;SDS011;9229;52.354;20.886;2023-04-24T19:57:18;14.48;;;8.18;;
18206;SDS011;9229;52.354;20.886;2023-04-24T20:02:20;7.32;;;6.57;;
18206;SDS011;9229;52.354;20.886;2023-04-24T20:07:22;9.07;;;7.35;;
18206;SDS011;9229;52.354;20.886;2023-04-24T20:12:26;10.65;;;7.38;;
18206;SDS011;9229;52.354;20.886;2023-04-24T20:17:28;16.60;;;9.27;;
18206;SDS011;9229;52.354;20.886;2023-04-24T20:22:30;12.05;;;9.43;;
18206;SDS011;9229;52.354;20.886;2023-04-24T20:27:39;13.20;;;9.48;;
18206;SDS011;9229;52.354;20.886;2023-04-24T20:32:41;17.33;;;9.77;;
18206;SDS011;9229;52.354;20.886;2023-04-24T20:37:43;14.88;;;10.13;;
18206;SDS011;9229;52.354;20.886;2023-04-24T20:42:47;13.77;;;9.68;;
18206;SDS011;9229;52.354;20.886;2023-04-24T20:47:50;12.10;;;10.27;;
18206;SDS011;9229;52.354;20.886;2023-04-24T20:52:52;16.13;;;11.38;;
18206;SDS011;9229;52.354;20.886;2023-04-24T20:57:56;13.65;;;10.70;;
18206;SDS011;9229;52.354;20.886;2023-04-24T21:02:59;20.80;;;10.88;;
18206;SDS011;9229;52.354;20.886;2023-04-24T21:08:01;12.93;;;10.98;;
18206;SDS011;9229;52.354;20.886;2023-04-24T21:13:04;15.52;;;10.95;;
18206;SDS011;9229;52.354;20.886;2023-04-24T21:18:07;14.75;;;11.00;;
18206;SDS011;9229;52.354;20.886;2023-04-24T21:23:09;16.30;;;11.43;;
18206;SDS011;9229;52.354;20.886;2023-04-24T21:28:12;22.63;;;11.43;;
18206;SDS011;9229;52.354;20.886;2023-04-24T21:33:14;14.27;;;11.48;;
18206;SDS011;9229;52.354;20.886;2023-04-24T21:38:17;15.88;;;11.25;;
18206;SDS011;9229;52.354;20.886;2023-04-24T21:43:23;18.80;;;11.48;;
18206;SDS011;9229;52.354;20.886;2023-04-24T21:48:25;15.45;;;11.68;;
18206;SDS011;9229;52.354;20.886;2023-04-24T21:53:27;22.33;;;12.77;;
18206;SDS011;9229;52.354;20.886;2023-04-24T21:58:31;18.88;;;11.93;;
18206;SDS011;9229;52.354;20.886;2023-04-24T22:03:33;19.30;;;12.55;;
18206;SDS011;9229;52.354;20.886;2023-04-24T22:08:35;24.08;;;12.90;;
18206;SDS011;9229;52.354;20.886;2023-04-24T22:13:38;24.23;;;13.43;;
18206;SDS011;9229;52.354;20.886;2023-04-24T22:18:40;15.85;;;12.63;;
18206;SDS011;9229;52.354;20.886;2023-04-24T22:23:42;20.20;;;12.05;;
18206;SDS011;9229;52.354;20.886;2023-04-24T22:28:46;19.65;;;12.65;;
18206;SDS011;9229;52.354;20.886;2023-04-24T22:33:48;20.33;;;13.20;;
18206;SDS011;9229;52.354;20.886;2023-04-24T22:38:50;20.40;;;14.10;;
18206;SDS011;9229;52.354;20.886;2023-04-24T22:43:54;20.88;;;13.30;;
18206;SDS011;9229;52.354;20.886;2023-04-24T22:48:56;22.85;;;12.98;;
18206;SDS011;9229;52.354;20.886;2023-04-24T22:53:59;19.85;;;13.00;;
18206;SDS011;9229;52.354;20.886;2023-04-24T22:59:03;17.88;;;13.00;;
18206;SDS011;9229;52.354;20.886;2023-04-24T23:04:05;18.98;;;13.30;;
18206;SDS011;9229;52.354;20.886;2023-04-24T23:09:08;17.90;;;13.80;;
18206;SDS011;9229;52.354;20.886;2023-04-24T23:14:12;19.52;;;12.38;;
18206;SDS011;9229;52.354;20.886;2023-04-24T23:19:13;22.13;;;13.15;;
18206;SDS011;9229;52.354;20.886;2023-04-24T23:24:16;18.70;;;13.65;;
18206;SDS011;9229;52.354;20.886;2023-04-24T23:29:19;18.92;;;14.00;;
18206;SDS011;9229;52.354;20.886;2023-04-24T23:34:22;21.52;;;13.68;;
18206;SDS011;9229;52.354;20.886;2023-04-24T23:39:24;23.27;;;14.43;;
18206;SDS011;9229;52.354;20.886;2023-04-24T23:44:28;20.98;;;14.82;;
18206;SDS011;9229;52.354;20.886;2023-04-24T23:49:30;21.05;;;14.00;;
18206;SDS011;9229;52.354;20.886;2023-04-24T23:54:32;25.13;;;15.00;;
18206;SDS011;9229;52.354;20.886;2023-04-24T23:59:36;25.92;;;14.45;;
